Time;durP1;ratioP1;P1;durP2;ratioP2;P2;SDS_P1;SDS_P2;PMS_P1;PMS_P2;Temp;Humidity;BMP_temperature;BMP_pressure;BME280_temperature;BME280_humidity;BME280_pressure;Samples;Min_cycle;Max_cycle;Signal;HPM_P1;HPM_P2
2022/07/05 00:02:25;;;;;;;7.30;6.80;;;18.10;1.00;;;;;;6325144;28;20236;-55
2022/07/05 00:05:28;;;;;;;7.13;6.53;;;18.10;1.00;;;;;;6337088;28;20697;-55
2022/07/05 00:08:31;;;;;;;6.67;6.17;;;18.00;1.00;;;;;;6321071;28;20319;-54
2022/07/05 00:11:34;;;;;;;6.77;6.20;;;18.00;1.00;;;;;;6336863;28;20520;-55
2022/07/05 00:14:37;;;;;;;6.40;5.90;;;18.00;1.00;;;;;;6335617;28;20242;-52
2022/07/05 00:17:42;;;;;;;6.43;5.93;;;17.90;1.00;;;;;;6322764;28;20239;-55
2022/07/05 00:20:45;;;;;;;6.10;5.70;;;17.90;1.00;;;;;;6311058;28;20311;-53
2022/07/05 00:23:48;;;;;;;5.80;5.47;;;17.90;1.00;;;;;;6308049;28;20346;-54
2022/07/05 00:26:51;;;;;;;6.20;5.80;;;17.80;1.00;;;;;;6310010;28;20237;-54
2022/07/05 00:30:04;;;;;;;5.97;5.67;;;17.80;1.00;;;;;;6311817;28;20262;-56
2022/07/05 00:33:08;;;;;;;5.83;5.53;;;17.80;1.00;;;;;;6310897;28;20236;-55
2022/07/05 00:36:11;;;;;;;6.03;5.57;;;17.70;1.00;;;;;;6332755;28;20365;-54
2022/07/05 00:39:14;;;;;;;5.80;5.40;;;17.70;1.00;;;;;;6331999;28;20261;-54
2022/07/05 00:42:17;;;;;;;5.63;5.23;;;17.70;1.00;;;;;;6311449;28;20386;-56
2022/07/05 00:45:20;;;;;;;5.47;5.27;;;17.70;1.00;;;;;;6310950;28;20712;-55
2022/07/05 00:48:25;;;;;;;5.23;4.90;;;17.70;1.00;;;;;;6316080;28;20252;-55
2022/07/05 00:51:32;;;;;;;4.87;4.67;;;17.60;1.00;;;;;;6335187;28;20247;-54
2022/07/05 00:54:37;;;;;;;5.03;4.73;;;17.60;1.00;;;;;;6305974;28;20228;-55
2022/07/05 00:57:45;;;;;;;4.80;4.60;;;17.60;1.00;;;;;;6322489;28;20329;-54
2022/07/05 01:00:47;;;;;;;4.30;4.10;;;17.60;1.00;;;;;;6310928;28;20701;-55
2022/07/05 01:03:52;;;;;;;3.70;3.50;;;17.60;1.00;;;;;;6322943;28;20415;-54
2022/07/05 01:06:57;;;;;;;3.90;3.77;;;17.60;1.00;;;;;;6325706;28;20236;-54
2022/07/05 01:10:02;;;;;;;3.93;3.70;;;17.50;1.00;;;;;;6333687;28;20322;-55
2022/07/05 01:13:04;;;;;;;4.27;3.87;;;17.50;1.00;;;;;;6337233;28;20716;-55
2022/07/05 01:16:08;;;;;;;4.00;3.80;;;17.50;1.00;;;;;;6316036;28;20259;-54
2022/07/05 01:19:13;;;;;;;3.80;3.60;;;17.50;1.00;;;;;;6319394;28;20551;-54
2022/07/05 01:22:21;;;;;;;3.97;3.77;;;17.60;1.00;;;;;;6332415;28;20743;-53
2022/07/05 01:25:27;;;;;;;3.50;3.40;;;17.60;1.00;;;;;;6319470;28;20232;-54
2022/07/05 01:28:30;;;;;;;3.10;3.00;;;17.60;1.00;;;;;;6308687;28;20413;-54
2022/07/05 01:31:34;;;;;;;2.77;2.50;;;17.80;1.00;;;;;;6308950;28;20242;-53
2022/07/05 01:34:40;;;;;;;2.90;2.73;;;17.90;1.00;;;;;;6324277;28;20280;-58
2022/07/05 01:37:45;;;;;;;2.90;2.50;;;18.00;1.00;;;;;;6325790;28;20244;-54
2022/07/05 01:40:51;;;;;;;3.63;2.70;;;18.10;1.00;;;;;;6334839;28;20242;-55
2022/07/05 01:44:01;;;;;;;2.97;2.87;;;18.10;1.00;;;;;;6324194;28;20366;-54
2022/07/05 01:47:06;;;;;;;3.30;2.60;;;18.20;1.00;;;;;;6305648;28;20290;-54
2022/07/05 01:50:12;;;;;;;3.03;2.83;;;18.20;1.00;;;;;;6309179;28;20247;-55
2022/07/05 01:53:18;;;;;;;2.73;2.63;;;18.20;1.00;;;;;;6305869;28;20495;-54
2022/07/05 01:56:37;;;;;;;2.80;2.60;;;18.20;1.00;;;;;;6308878;28;20315;-55
2022/07/05 01:59:41;;;;;;;3.20;2.90;;;18.20;1.00;;;;;;6308279;28;20252;-55
2022/07/05 02:02:47;;;;;;;4.53;2.80;;;18.20;1.00;;;;;;6313174;27;22002;-54
2022/07/05 02:05:50;;;;;;;2.97;2.87;;;18.10;1.00;;;;;;6335103;28;20314;-54
2022/07/05 02:08:53;;;;;;;6.63;2.97;;;18.10;1.00;;;;;;6318018;28;20731;-55
2022/07/05 02:11:57;;;;;;;2.57;2.47;;;18.00;1.00;;;;;;6325888;28;20323;-54
2022/07/05 02:15:00;;;;;;;2.80;2.70;;;18.00;1.00;;;;;;6334187;28;20240;-55
2022/07/05 02:18:04;;;;;;;2.80;2.70;;;17.90;1.00;;;;;;6315156;28;20294;-55
2022/07/05 02:21:07;;;;;;;2.73;2.63;;;18.00;1.00;;;;;;6279775;28;20625;-47
2022/07/05 02:24:10;;;;;;;3.20;2.97;;;18.00;1.00;;;;;;6306685;28;20239;-55
2022/07/05 02:27:15;;;;;;;2.83;2.63;;;18.00;1.00;;;;;;6304592;28;20313;-53
2022/07/05 02:30:18;;;;;;;2.83;2.63;;;17.90;1.00;;;;;;6308502;28;20293;-54
2022/07/05 02:33:21;;;;;;;2.63;2.63;;;17.90;1.00;;;;;;6317150;28;20532;-54
2022/07/05 02:36:25;;;;;;;2.67;2.57;;;17.80;1.00;;;;;;6333313;28;20311;-54
2022/07/05 02:39:29;;;;;;;2.93;2.73;;;17.80;1.00;;;;;;6329911;28;20301;-55
2022/07/05 02:42:34;;;;;;;2.80;2.60;;;17.80;1.00;;;;;;6307097;28;20258;-55
2022/07/05 02:45:37;;;;;;;2.83;2.63;;;17.70;1.00;;;;;;6308103;28;20256;-54
2022/07/05 02:48:40;;;;;;;2.87;2.67;;;17.70;1.00;;;;;;6310705;28;20236;-54
2022/07/05 02:51:43;;;;;;;2.90;2.77;;;17.70;1.00;;;;;;6325459;28;20319;-54
2022/07/05 02:54:46;;;;;;;2.60;2.50;;;17.70;1.00;;;;;;6317243;28;20475;-55
2022/07/05 02:57:51;;;;;;;2.53;2.43;;;17.60;1.00;;;;;;6306426;28;20615;-55
2022/07/05 03:00:54;;;;;;;2.70;2.50;;;17.50;1.00;;;;;;6308084;28;20232;-55
2022/07/05 03:03:58;;;;;;;4.83;2.90;;;17.50;1.00;;;;;;6321152;28;20635;-54
2022/07/05 03:07:01;;;;;;;3.03;2.77;;;17.50;1.00;;;;;;6326827;28;20235;-53
2022/07/05 03:10:05;;;;;;;3.33;3.07;;;17.50;1.00;;;;;;6331895;28;20776;-54
2022/07/05 03:13:09;;;;;;;3.43;3.23;;;17.40;1.00;;;;;;6332893;28;20231;-54
2022/07/05 03:16:12;;;;;;;3.50;3.20;;;17.40;1.00;;;;;;6320622;28;20312;-54
2022/07/05 03:19:16;;;;;;;4.30;3.00;;;17.40;1.00;;;;;;6305775;28;20237;-53
2022/07/05 03:22:18;;;;;;;2.80;2.70;;;17.30;1.00;;;;;;6303888;28;20244;-55
2022/07/05 03:25:21;;;;;;;2.80;2.60;;;17.30;1.00;;;;;;6306637;28;20592;-53
2022/07/05 03:28:25;;;;;;;3.40;3.30;;;17.20;1.00;;;;;;6306180;28;20323;-54
2022/07/05 03:31:29;;;;;;;3.20;3.00;;;17.20;1.00;;;;;;6298976;28;21151;-52
2022/07/05 03:34:31;;;;;;;3.13;2.90;;;17.20;1.00;;;;;;6321890;28;20251;-56
2022/07/05 03:37:35;;;;;;;3.07;2.97;;;17.20;1.00;;;;;;6323991;28;20338;-54
2022/07/05 03:40:37;;;;;;;3.30;2.87;;;17.20;1.00;;;;;;6331788;28;20327;-53
2022/07/05 03:43:42;;;;;;;3.27;2.90;;;17.10;1.00;;;;;;6335441;28;20467;-54
2022/07/05 03:46:45;;;;;;;3.37;3.07;;;17.10;1.00;;;;;;6335177;28;20227;-54
2022/07/05 03:49:52;;;;;;;3.80;3.00;;;17.10;1.00;;;;;;6333662;28;20236;-53
2022/07/05 03:52:55;;;;;;;3.67;3.20;;;17.10;1.00;;;;;;6331781;28;20236;-54
2022/07/05 03:55:58;;;;;;;3.10;3.00;;;17.10;1.00;;;;;;6333788;28;20242;-55
2022/07/05 03:59:02;;;;;;;2.80;2.80;;;17.10;1.00;;;;;;6335116;28;20247;-55
2022/07/05 04:02:05;;;;;;;3.13;3.03;;;17.10;1.00;;;;;;6334827;28;20609;-55
2022/07/05 04:05:08;;;;;;;2.70;2.70;;;17.20;1.00;;;;;;6335241;28;20263;-54
2022/07/05 04:08:11;;;;;;;2.90;2.80;;;17.20;1.00;;;;;;6321057;27;20724;-54
2022/07/05 04:11:15;;;;;;;2.60;2.50;;;17.10;1.00;;;;;;6331207;28;20228;-54
2022/07/05 04:14:22;;;;;;;2.90;2.70;;;17.20;1.00;;;;;;6335318;28;20335;-54
2022/07/05 04:17:26;;;;;;;3.10;2.93;;;17.20;1.00;;;;;;6332722;28;20720;-55
2022/07/05 04:20:30;;;;;;;3.37;2.80;;;17.20;1.00;;;;;;6336050;27;20327;-55
2022/07/05 04:23:33;;;;;;;3.13;2.80;;;17.20;1.00;;;;;;6332955;28;20255;-54
2022/07/05 04:26:36;;;;;;;4.67;2.80;;;17.30;1.00;;;;;;6337680;28;20236;-54
2022/07/05 04:29:40;;;;;;;2.73;2.63;;;17.40;1.00;;;;;;6335398;28;20704;-55
2022/07/05 04:32:44;;;;;;;2.57;2.47;;;17.40;1.00;;;;;;6334880;28;20612;-54
2022/07/05 04:35:47;;;;;;;2.97;2.80;;;17.40;1.00;;;;;;6332811;28;20444;-53
2022/07/05 04:38:51;;;;;;;2.80;2.70;;;17.50;1.00;;;;;;6326134;28;20671;-53
2022/07/05 04:41:53;;;;;;;2.90;2.70;;;17.60;1.00;;;;;;6332918;27;20580;-53
2022/07/05 04:44:58;;;;;;;3.40;3.03;;;17.60;1.00;;;;;;6335627;27;20587;-54
2022/07/05 04:48:02;;;;;;;4.63;2.73;;;17.70;1.00;;;;;;6330838;28;20421;-54
2022/07/05 04:51:05;;;;;;;4.87;2.70;;;17.80;1.00;;;;;;6333864;28;20232;-55
2022/07/05 04:54:08;;;;;;;2.70;2.50;;;17.90;1.00;;;;;;6338671;27;20697;-54
2022/07/05 04:57:11;;;;;;;2.40;2.30;;;18.00;1.00;;;;;;6332137;28;20393;-55
2022/07/05 05:00:16;;;;;;;2.57;2.47;;;18.10;1.00;;;;;;6334420;27;20320;-54
2022/07/05 05:03:20;;;;;;;2.37;2.27;;;18.20;1.00;;;;;;6333157;28;20232;-53
2022/07/05 05:06:23;;;;;;;3.53;2.73;;;18.40;1.00;;;;;;6335432;27;20623;-54
2022/07/05 05:09:27;;;;;;;2.97;2.70;;;18.60;1.00;;;;;;6330123;28;20246;-55
2022/07/05 05:12:30;;;;;;;2.73;2.57;;;18.90;1.00;;;;;;6328266;28;20265;-55
2022/07/05 05:15:35;;;;;;;2.50;2.40;;;19.10;1.00;;;;;;6334510;28;20251;-53
2022/07/05 05:18:38;;;;;;;5.30;2.17;;;19.40;1.00;;;;;;6332103;28;20470;-54
2022/07/05 05:21:40;;;;;;;2.93;2.43;;;19.60;1.00;;;;;;6334713;27;20304;-54
2022/07/05 05:24:43;;;;;;;2.57;2.47;;;19.90;1.00;;;;;;6336086;27;20664;-54
2022/07/05 05:27:50;;;;;;;2.37;2.17;;;20.20;1.00;;;;;;6333562;28;20658;-54
2022/07/05 05:30:54;;;;;;;2.30;2.30;;;20.50;1.00;;;;;;6334485;28;20276;-53
2022/07/05 05:33:57;;;;;;;2.50;2.40;;;20.70;1.00;;;;;;6321249;28;20232;-54
2022/07/05 05:37:00;;;;;;;3.33;2.87;;;20.90;1.00;;;;;;6326013;28;20311;-55
2022/07/05 05:40:03;;;;;;;4.87;2.53;;;21.10;1.00;;;;;;6329688;27;20331;-56
2022/07/05 05:43:06;;;;;;;2.57;2.13;;;21.10;1.00;;;;;;6329871;28;20701;-54
2022/07/05 05:46:10;;;;;;;2.40;2.20;;;21.40;1.00;;;;;;6329802;28;20618;-55
2022/07/05 05:49:19;;;;;;;2.40;2.13;;;21.50;1.00;;;;;;6331320;28;20606;-54
2022/07/05 05:52:22;;;;;;;2.23;2.13;;;21.70;1.00;;;;;;6328586;28;20423;-55
2022/07/05 05:55:26;;;;;;;3.50;1.97;;;22.00;1.00;;;;;;6332170;28;20373;-54
2022/07/05 05:58:29;;;;;;;2.50;2.30;;;22.10;1.00;;;;;;6331731;28;20334;-53
2022/07/05 06:01:34;;;;;;;2.17;2.07;;;22.20;1.00;;;;;;6327948;27;20220;-53
2022/07/05 06:04:37;;;;;;;7.93;2.60;;;22.30;1.00;;;;;;6330675;28;20227;-55
2022/07/05 06:07:50;;;;;;;2.40;2.30;;;22.60;1.00;;;;;;6324384;28;20255;-54
2022/07/05 06:10:53;;;;;;;3.77;2.27;;;22.70;1.00;;;;;;6328510;28;20228;-53
2022/07/05 06:14:04;;;;;;;2.63;1.93;;;22.80;1.00;;;;;;6330258;28;20243;-54
2022/07/05 06:17:08;;;;;;;2.13;2.00;;;23.10;1.00;;;;;;6333292;27;20231;-54
2022/07/05 06:20:16;;;;;;;1.90;1.70;;;23.40;1.00;;;;;;6326642;28;20711;-54
2022/07/05 06:23:19;;;;;;;2.07;1.90;;;23.70;1.00;;;;;;6320364;28;20331;-54
2022/07/05 06:26:22;;;;;;;5.37;1.97;;;23.80;1.00;;;;;;6332688;27;20330;-55
2022/07/05 06:29:25;;;;;;;2.83;2.03;;;24.00;1.00;;;;;;6330975;28;20711;-54
2022/07/05 06:32:29;;;;;;;2.30;2.30;;;24.10;1.00;;;;;;6324071;28;20239;-54
2022/07/05 06:35:33;;;;;;;5.07;2.27;;;24.30;1.00;;;;;;6329973;28;20264;-54
2022/07/05 06:38:39;;;;;;;3.80;2.03;;;24.50;1.00;;;;;;6323483;28;20454;-54
2022/07/05 06:41:42;;;;;;;3.50;2.73;;;24.60;1.00;;;;;;6332239;28;20303;-55
2022/07/05 06:44:45;;;;;;;2.07;2.03;;;24.70;1.00;;;;;;6327824;28;20266;-54
2022/07/05 06:47:57;;;;;;;2.23;2.13;;;24.60;1.00;;;;;;6324466;28;20236;-54
2022/07/05 06:51:00;;;;;;;2.60;2.40;;;24.90;1.00;;;;;;6329366;28;20281;-53
2022/07/05 06:54:03;;;;;;;2.50;2.40;;;25.00;1.00;;;;;;6323954;28;20724;-54
2022/07/05 06:57:26;;;;;;;5.43;2.60;;;25.30;1.00;;;;;;6301473;28;20269;-55
2022/07/05 07:00:39;;;;;;;3.27;2.57;;;25.40;1.00;;;;;;6322578;28;20220;-54
2022/07/05 07:04:05;;;;;;;2.83;2.40;;;25.60;1.00;;;;;;6317846;27;20239;-55
2022/07/05 07:10:55;;;;;;;3.83;2.30;;;25.70;1.00;;;;;;6334036;28;20489;-54
2022/07/05 07:13:58;;;;;;;2.90;2.60;;;25.10;1.00;;;;;;6321778;28;20319;-54
2022/07/05 07:17:00;;;;;;;3.03;2.23;;;25.30;1.00;;;;;;6324923;28;20286;-56
2022/07/05 07:20:06;;;;;;;3.03;2.77;;;25.40;1.00;;;;;;6326052;28;20357;-54
2022/07/05 07:23:09;;;;;;;3.07;2.40;;;25.00;1.00;;;;;;6314327;28;20315;-54
2022/07/05 07:26:13;;;;;;;2.50;2.27;;;25.00;1.00;;;;;;6331769;28;20249;-54
2022/07/05 07:29:16;;;;;;;2.50;2.50;;;25.10;1.00;;;;;;6331335;28;20244;-54
2022/07/05 07:32:19;;;;;;;4.03;2.43;;;25.00;1.00;;;;;;6324877;28;20255;-54
2022/07/05 07:35:23;;;;;;;2.93;2.50;;;24.60;1.00;;;;;;6304316;28;20251;-53
2022/07/05 07:38:32;;;;;;;2.43;2.33;;;24.00;1.00;;;;;;6319855;28;20235;-54
2022/07/05 07:41:35;;;;;;;2.37;2.27;;;24.10;1.00;;;;;;6326833;28;20238;-55
2022/07/05 07:44:38;;;;;;;2.83;2.60;;;24.00;1.00;;;;;;6323073;28;20854;-54
2022/07/05 07:47:42;;;;;;;2.80;2.60;;;24.00;1.00;;;;;;6317148;28;20763;-55
2022/07/05 07:50:46;;;;;;;2.70;2.50;;;24.20;1.00;;;;;;6314297;28;20268;-55
2022/07/05 07:53:49;;;;;;;4.53;2.90;;;23.90;1.00;;;;;;6316976;28;20232;-54
2022/07/05 07:57:08;;;;;;;2.40;2.20;;;23.70;1.00;;;;;;6322517;28;20224;-53
2022/07/05 08:00:11;;;;;;;2.70;2.20;;;23.70;1.00;;;;;;6334265;28;20693;-53
2022/07/05 08:03:24;;;;;;;4.07;2.47;;;23.70;1.00;;;;;;6335049;28;20723;-55
2022/07/05 08:06:29;;;;;;;2.93;2.13;;;23.70;1.00;;;;;;6305280;28;20238;-53
2022/07/05 08:09:32;;;;;;;2.60;2.43;;;23.80;1.00;;;;;;6319428;28;20267;-54
2022/07/05 08:12:38;;;;;;;3.13;1.90;;;23.80;1.00;;;;;;6324462;28;20231;-54
2022/07/05 08:15:41;;;;;;;2.20;2.10;;;24.00;1.00;;;;;;6325187;28;20800;-53
2022/07/05 08:22:07;;;;;;;2.50;2.40;;;24.20;1.00;;;;;;6326493;28;20298;-54
2022/07/05 08:25:13;;;;;;;2.50;2.30;;;24.10;1.00;;;;;;6333737;28;20228;-55
2022/07/05 08:28:16;;;;;;;2.50;2.30;;;23.70;1.00;;;;;;6334330;27;20244;-53
2022/07/05 08:31:19;;;;;;;2.43;2.20;;;23.70;1.00;;;;;;6333402;28;20716;-54
2022/07/05 08:34:22;;;;;;;2.60;2.37;;;23.70;1.00;;;;;;6325561;28;20767;-53
2022/07/05 08:37:27;;;;;;;4.07;2.67;;;23.50;1.00;;;;;;6323553;28;20236;-53
2022/07/05 08:40:33;;;;;;;3.63;2.70;;;23.70;1.00;;;;;;6336362;27;20283;-55
2022/07/05 08:43:40;;;;;;;2.70;2.30;;;23.70;1.00;;;;;;6322135;28;20263;-54
2022/07/05 08:46:45;;;;;;;2.50;2.30;;;23.80;1.00;;;;;;6331430;27;20328;-55
2022/07/05 08:49:50;;;;;;;2.40;2.30;;;23.90;1.00;;;;;;6329372;28;20240;-53
2022/07/05 08:52:58;;;;;;;2.50;2.30;;;24.10;1.00;;;;;;6339493;27;20377;-55
2022/07/05 08:56:05;;;;;;;2.40;1.90;;;24.00;1.00;;;;;;6327925;28;20323;-53
2022/07/05 08:59:08;;;;;;;2.80;2.60;;;24.10;1.00;;;;;;6318846;27;20275;-55
2022/07/05 09:02:21;;;;;;;4.87;2.60;;;24.20;1.00;;;;;;6338417;27;20228;-53
2022/07/05 09:05:26;;;;;;;2.40;2.30;;;24.10;1.00;;;;;;6329402;27;20308;-54
2022/07/05 09:08:39;;;;;;;2.77;2.60;;;24.20;1.00;;;;;;6322801;27;20471;-54
2022/07/05 09:11:46;;;;;;;3.23;2.53;;;24.30;1.00;;;;;;6324516;28;20339;-59
2022/07/05 09:15:10;;;;;;;2.57;2.47;;;24.40;1.00;;;;;;6340979;27;20235;-54
2022/07/05 09:18:13;;;;;;;5.00;2.47;;;24.50;1.00;;;;;;6330694;27;20297;-54
2022/07/05 09:21:19;;;;;;;5.37;2.83;;;24.60;1.00;;;;;;6325837;28;20233;-55
2022/07/05 09:24:23;;;;;;;2.90;2.70;;;24.60;1.00;;;;;;6328441;28;20238;-55
2022/07/05 09:27:26;;;;;;;2.80;2.60;;;24.60;1.00;;;;;;6330840;28;20307;-54
2022/07/05 09:30:32;;;;;;;5.47;2.50;;;24.80;1.00;;;;;;6338675;27;20529;-54
2022/07/05 09:33:34;;;;;;;3.03;2.47;;;24.90;1.00;;;;;;6330750;27;20848;-54
2022/07/05 09:36:54;;;;;;;2.53;2.43;;;24.50;1.00;;;;;;6325367;27;20235;-54
2022/07/05 09:39:59;;;;;;;2.80;2.53;;;24.50;1.00;;;;;;6332030;27;20232;-54
2022/07/05 09:43:19;;;;;;;2.43;2.33;;;24.70;1.00;;;;;;6332362;28;20310;-56
2022/07/05 09:46:31;;;;;;;3.10;2.87;;;25.00;1.00;;;;;;6317158;27;20310;-54
2022/07/05 09:49:34;;;;;;;2.80;2.70;;;25.10;1.00;;;;;;6329322;28;20722;-54
2022/07/05 09:52:57;;;;;;;3.30;2.87;;;25.10;1.00;;;;;;6313089;27;20239;-54
2022/07/05 09:56:06;;;;;;;5.40;2.40;;;25.00;1.00;;;;;;6324784;28;20775;-51
2022/07/05 09:59:14;;;;;;;5.47;5.00;;;24.80;1.00;;;;;;6331516;28;20240;-54
2022/07/05 10:02:34;;;;;;;3.03;2.57;;;24.90;1.00;;;;;;6307040;28;20296;-53
2022/07/05 10:05:37;;;;;;;3.13;2.90;;;25.00;1.00;;;;;;6324778;28;20216;-52
2022/07/05 10:08:40;;;;;;;4.07;2.50;;;25.10;1.00;;;;;;6324122;27;20608;-54
2022/07/05 10:11:46;;;;;;;3.33;2.53;;;25.00;1.00;;;;;;6309548;27;20276;-53
2022/07/05 10:14:49;;;;;;;2.90;2.80;;;24.70;1.00;;;;;;6325479;28;20229;-54
2022/07/05 10:17:57;;;;;;;5.70;2.67;;;24.60;1.00;;;;;;6328131;28;20281;-54
2022/07/05 10:21:01;;;;;;;3.00;2.80;;;24.30;1.00;;;;;;6330621;28;20799;-57
2022/07/05 10:24:05;;;;;;;3.27;3.07;;;24.30;1.00;;;;;;6326380;27;20232;-54
2022/07/05 10:27:09;;;;;;;3.10;2.90;;;24.30;1.00;;;;;;6323641;28;20751;-54
2022/07/05 10:30:13;;;;;;;3.07;2.90;;;24.30;1.00;;;;;;6319032;27;20431;-54
2022/07/05 10:33:21;;;;;;;2.63;2.43;;;24.30;1.00;;;;;;6322994;28;20240;-56
2022/07/05 10:36:27;;;;;;;3.57;3.10;;;24.30;1.00;;;;;;6319780;28;20300;-54
2022/07/05 10:39:30;;;;;;;3.03;2.83;;;24.60;1.00;;;;;;6328231;28;20247;-55
2022/07/05 10:42:40;;;;;;;3.07;2.97;;;24.70;1.00;;;;;;6335160;27;20227;-54
2022/07/05 10:45:49;;;;;;;3.20;3.00;;;24.80;1.00;;;;;;6324811;27;20231;-54
2022/07/05 10:49:11;;;;;;;3.60;2.93;;;24.80;1.00;;;;;;6318727;28;20228;-53
2022/07/05 10:52:25;;;;;;;2.80;2.60;;;24.70;1.00;;;;;;6336936;27;20722;-52
2022/07/05 10:55:27;;;;;;;4.43;3.17;;;24.70;1.00;;;;;;6330666;27;20645;-53
2022/07/05 10:58:33;;;;;;;3.47;2.60;;;25.00;1.00;;;;;;6331172;28;20240;-54
2022/07/05 11:01:40;;;;;;;2.40;2.30;;;25.40;1.00;;;;;;6329859;28;20348;-55
2022/07/05 11:04:44;;;;;;;2.73;2.60;;;25.50;1.00;;;;;;6328421;27;20240;-55
2022/07/05 11:07:59;;;;;;;2.77;2.63;;;25.50;1.00;;;;;;6318950;28;20588;-53
2022/07/05 11:11:15;;;;;;;2.90;2.50;;;25.40;1.00;;;;;;6320323;28;20527;-54
2022/07/05 11:14:40;;;;;;;2.83;2.70;;;25.30;1.00;;;;;;6312796;28;20521;-55
2022/07/05 11:17:43;;;;;;;4.50;2.80;;;25.10;1.00;;;;;;6319352;28;20404;-55
2022/07/05 11:21:17;;;;;;;2.90;2.70;;;25.20;1.00;;;;;;6328434;28;20823;-54
2022/07/05 11:24:22;;;;;;;2.97;2.87;;;25.50;1.00;;;;;;6310142;28;20674;-53
2022/07/05 11:27:25;;;;;;;5.53;2.77;;;25.50;1.00;;;;;;6316337;28;20442;-53
2022/07/05 11:30:29;;;;;;;2.47;2.37;;;25.50;1.00;;;;;;6315543;28;20236;-54
2022/07/05 11:33:38;;;;;;;5.00;2.97;;;25.50;1.00;;;;;;6328680;28;20240;-54
2022/07/05 11:36:41;;;;;;;3.27;2.70;;;25.60;1.00;;;;;;6306087;28;20239;-54
2022/07/05 11:39:46;;;;;;;3.20;3.00;;;25.40;1.00;;;;;;6326993;28;20297;-55
2022/07/05 11:42:51;;;;;;;2.43;2.23;;;25.10;1.00;;;;;;6327411;28;20225;-53
2022/07/05 11:45:58;;;;;;;3.00;2.80;;;24.70;1.00;;;;;;6336175;28;20236;-57
2022/07/05 11:49:02;;;;;;;3.40;3.07;;;24.70;1.00;;;;;;6327874;28;20244;-53
2022/07/05 11:52:05;;;;;;;2.77;2.57;;;24.60;1.00;;;;;;6329405;28;20412;-54
2022/07/05 11:55:10;;;;;;;2.73;2.53;;;24.80;1.00;;;;;;6324626;28;20241;-53
2022/07/05 11:58:14;;;;;;;2.80;2.57;;;24.90;1.00;;;;;;6331654;28;20248;-53
2022/07/05 12:01:18;;;;;;;2.30;2.20;;;24.80;1.00;;;;;;6337349;28;20318;-53
2022/07/05 12:04:22;;;;;;;4.30;2.70;;;24.80;1.00;;;;;;6335734;28;20246;-56
2022/07/05 12:07:27;;;;;;;2.30;2.20;;;24.90;1.00;;;;;;6332511;28;20404;-53
2022/07/05 12:14:21;;;;;;;2.27;2.10;;;25.00;1.00;;;;;;6335469;27;20338;-53
2022/07/05 12:17:25;;;;;;;2.60;2.40;;;25.10;1.00;;;;;;6328769;27;20231;-53
2022/07/05 12:20:29;;;;;;;3.03;2.30;;;25.10;1.00;;;;;;6334854;28;20692;-54
2022/07/05 12:23:31;;;;;;;7.03;4.10;;;24.90;1.00;;;;;;6332135;28;20639;-54
2022/07/05 12:26:38;;;;;;;2.47;2.40;;;24.90;1.00;;;;;;6336454;28;20314;-53
2022/07/05 12:29:41;;;;;;;4.30;2.57;;;24.90;1.00;;;;;;6334057;28;20247;-54
2022/07/05 12:32:56;;;;;;;2.30;2.30;;;24.80;1.00;;;;;;6334726;28;20726;-55
2022/07/05 12:36:00;;;;;;;2.60;2.40;;;25.00;1.00;;;;;;6327904;28;20255;-55
2022/07/05 12:39:03;;;;;;;2.50;2.40;;;25.30;1.00;;;;;;6329705;28;20664;-53
2022/07/05 12:42:06;;;;;;;2.80;2.70;;;25.60;1.00;;;;;;6334963;28;20235;-54
2022/07/05 12:45:14;;;;;;;4.10;2.80;;;25.90;1.00;;;;;;6333416;27;20514;-53
2022/07/05 12:48:30;;;;;;;4.00;2.47;;;25.90;1.00;;;;;;6325467;28;20236;-53
2022/07/05 12:51:35;;;;;;;4.07;2.07;;;25.90;1.00;;;;;;6332804;28;20614;-53
2022/07/05 12:58:03;;;;;;;2.83;2.60;;;25.40;1.00;;;;;;6332155;28;20390;-54
2022/07/05 13:01:20;;;;;;;6.40;3.10;;;25.30;1.00;;;;;;6331473;28;20232;-55
2022/07/05 13:04:24;;;;;;;2.60;2.50;;;25.20;1.00;;;;;;6327463;27;20708;-54
2022/07/05 13:07:28;;;;;;;3.63;2.53;;;25.40;1.00;;;;;;6332091;27;20319;-53
2022/07/05 13:10:47;;;;;;;2.90;2.80;;;25.70;1.00;;;;;;6336102;28;20228;-54
2022/07/05 13:13:50;;;;;;;2.30;2.20;;;25.70;1.00;;;;;;6328738;27;20334;-53
2022/07/05 13:16:54;;;;;;;2.60;2.50;;;25.50;1.00;;;;;;6333734;28;20245;-54
2022/07/05 13:19:59;;;;;;;2.50;2.43;;;25.40;1.00;;;;;;6330776;28;20254;-54
2022/07/05 13:23:05;;;;;;;2.60;2.50;;;25.50;1.00;;;;;;6328987;28;20698;-53
2022/07/05 13:26:08;;;;;;;2.50;2.40;;;25.70;1.00;;;;;;6333834;28;20262;-53
2022/07/05 13:29:11;;;;;;;2.43;2.23;;;25.70;1.00;;;;;;6333019;28;20239;-55
2022/07/05 13:32:15;;;;;;;3.43;2.30;;;25.70;1.00;;;;;;6332184;28;20277;-53
2022/07/05 13:35:20;;;;;;;3.10;2.80;;;25.50;1.00;;;;;;6327038;27;20239;-53
2022/07/05 13:38:23;;;;;;;2.40;2.30;;;25.70;1.00;;;;;;6332722;27;20288;-54
2022/07/05 13:41:26;;;;;;;2.77;2.67;;;25.90;1.00;;;;;;6328566;28;20316;-55
2022/07/05 13:44:29;;;;;;;2.80;2.60;;;25.90;1.00;;;;;;6333371;28;20331;-53
2022/07/05 13:47:38;;;;;;;3.60;2.50;;;26.00;1.00;;;;;;6330714;28;20232;-54
2022/07/05 13:50:45;;;;;;;3.93;2.20;;;26.00;1.00;;;;;;6334211;28;20228;-53
2022/07/05 13:53:48;;;;;;;3.20;2.30;;;26.20;1.00;;;;;;6329026;28;20238;-52
2022/07/05 13:56:51;;;;;;;2.30;2.20;;;26.30;1.00;;;;;;6333422;28;20734;-53
2022/07/05 13:59:55;;;;;;;2.77;2.50;;;26.30;1.00;;;;;;6332912;27;20732;-52
2022/07/05 14:02:58;;;;;;;2.83;2.57;;;26.30;1.00;;;;;;6325582;28;20234;-54
2022/07/05 14:06:09;;;;;;;2.30;2.20;;;26.30;1.00;;;;;;6332874;28;20239;-54
2022/07/05 14:09:12;;;;;;;2.20;2.10;;;26.40;1.00;;;;;;6328318;28;20235;-54
2022/07/05 14:12:15;;;;;;;2.70;2.50;;;26.40;1.00;;;;;;6327595;28;20698;-54
2022/07/05 14:15:17;;;;;;;2.83;2.73;;;26.30;1.00;;;;;;6332275;28;20326;-54
2022/07/05 14:18:24;;;;;;;2.27;2.20;;;26.10;1.00;;;;;;6336788;27;20235;-54
2022/07/05 14:21:28;;;;;;;2.00;1.90;;;26.00;1.00;;;;;;6328150;28;20560;-53
2022/07/05 14:24:41;;;;;;;2.20;2.20;;;26.00;1.00;;;;;;6324312;28;20224;-54
2022/07/05 14:27:44;;;;;;;2.27;2.17;;;25.90;1.00;;;;;;6331204;28;20373;-53
2022/07/05 14:30:51;;;;;;;2.27;2.27;;;26.00;1.00;;;;;;6329237;28;20228;-53
2022/07/05 14:33:54;;;;;;;3.23;2.47;;;26.10;1.00;;;;;;6329806;28;20302;-53
2022/07/05 14:37:00;;;;;;;4.00;2.37;;;26.10;1.00;;;;;;6332042;27;20861;-53
2022/07/05 14:40:04;;;;;;;2.93;2.80;;;26.00;1.00;;;;;;6330580;28;20704;-53
2022/07/05 14:43:07;;;;;;;2.60;2.50;;;26.00;1.00;;;;;;6330441;28;20220;-55
2022/07/05 14:46:12;;;;;;;2.40;2.30;;;26.00;1.00;;;;;;6331134;28;20278;-54
2022/07/05 14:49:16;;;;;;;2.67;2.43;;;25.80;1.00;;;;;;6328548;27;20247;-54
2022/07/05 14:52:20;;;;;;;2.53;2.40;;;25.60;1.00;;;;;;6327970;28;20498;-53
2022/07/05 14:55:23;;;;;;;4.97;2.47;;;25.60;1.00;;;;;;6330725;28;20292;-53
2022/07/05 14:58:31;;;;;;;2.60;2.40;;;25.60;1.00;;;;;;6324141;28;20777;-54
2022/07/05 15:01:34;;;;;;;3.07;2.50;;;25.70;1.00;;;;;;6325899;28;20421;-53
2022/07/05 15:04:37;;;;;;;3.10;2.33;;;25.80;1.00;;;;;;6330473;28;20244;-54
2022/07/05 15:07:41;;;;;;;2.53;2.53;;;25.90;1.00;;;;;;6327406;28;20370;-53
2022/07/05 15:10:45;;;;;;;2.77;2.67;;;26.00;1.00;;;;;;6325033;28;20235;-54
2022/07/05 15:13:49;;;;;;;2.00;2.00;;;26.20;1.00;;;;;;6331085;28;20632;-53
2022/07/05 15:16:52;;;;;;;2.50;1.97;;;26.30;1.00;;;;;;6330993;28;20238;-53
2022/07/05 15:19:55;;;;;;;3.57;2.50;;;26.30;1.00;;;;;;6330150;28;20235;-54
2022/07/05 15:22:59;;;;;;;7.13;2.43;;;26.20;1.00;;;;;;6327653;28;20419;-54
2022/07/05 15:26:02;;;;;;;2.67;2.57;;;25.80;1.00;;;;;;6331865;28;20232;-53
2022/07/05 15:29:08;;;;;;;2.60;2.40;;;25.90;1.00;;;;;;6325118;28;20392;-53
2022/07/05 15:32:11;;;;;;;2.50;2.50;;;25.90;1.00;;;;;;6331246;28;20618;-53
2022/07/05 15:35:15;;;;;;;2.30;2.20;;;26.00;1.00;;;;;;6332599;28;20282;-54
2022/07/05 15:38:19;;;;;;;3.80;1.93;;;26.10;1.00;;;;;;6329719;28;20295;-53
2022/07/05 15:41:23;;;;;;;2.63;2.53;;;26.30;1.00;;;;;;6336873;28;20296;-54
2022/07/05 15:44:26;;;;;;;2.50;2.30;;;26.40;1.00;;;;;;6330676;27;20734;-54
2022/07/05 15:47:29;;;;;;;2.60;2.33;;;26.30;1.00;;;;;;6334984;28;20235;-55
2022/07/05 15:50:32;;;;;;;2.40;2.30;;;26.20;1.00;;;;;;6334683;27;20235;-54
2022/07/05 15:53:36;;;;;;;2.87;2.20;;;25.90;1.00;;;;;;6331877;28;20274;-54
2022/07/05 15:56:40;;;;;;;2.20;2.10;;;25.90;1.00;;;;;;6336069;28;20235;-53
2022/07/05 15:59:44;;;;;;;2.27;2.13;;;25.60;1.00;;;;;;6333647;27;20227;-50
2022/07/05 16:02:48;;;;;;;2.40;2.30;;;25.60;1.00;;;;;;6334697;28;20725;-53
2022/07/05 16:05:51;;;;;;;2.03;1.97;;;25.70;1.00;;;;;;6334076;27;20599;-52
2022/07/05 16:08:55;;;;;;;5.43;2.47;;;25.60;1.00;;;;;;6331597;28;20320;-54
2022/07/05 16:12:01;;;;;;;2.20;2.10;;;25.70;1.00;;;;;;6335220;28;20235;-54
2022/07/05 16:15:06;;;;;;;2.60;2.40;;;25.70;1.00;;;;;;6336476;27;20775;-53
2022/07/05 16:18:09;;;;;;;3.40;2.20;;;25.80;1.00;;;;;;6332354;28;20372;-54
2022/07/05 16:21:14;;;;;;;1.87;1.83;;;25.80;1.00;;;;;;6335275;27;20311;-54
2022/07/05 16:24:19;;;;;;;2.37;2.27;;;25.80;1.00;;;;;;6329496;28;20228;-55
2022/07/05 16:27:22;;;;;;;2.70;2.50;;;25.60;1.00;;;;;;6334044;28;20240;-54
2022/07/05 16:30:25;;;;;;;2.40;2.10;;;25.40;1.00;;;;;;6335411;28;20232;-56
2022/07/05 16:33:30;;;;;;;2.33;2.10;;;25.20;1.00;;;;;;6329915;28;20637;-56